San Pablo, CA (94806)

1:22 PM PDT on August 20, 2014 (GMT -0700)
Bayview-Montalvin | Change Station
CLOSE
Current Station
Personal Weather Station
Location: San Pablo, CA
Elevation: 59 ft
Nearby Weather Stations

Elev 59 ft 38.01 °N, 122.32 °W | Updated 10 seconds ago

Mostly Cloudy
Mostly Cloudy
68.0 °F
Feels Like 68.0 °F
N
4.7
Wind Variable Wind from SW
Gusts 6.9 mph

Today
High -- | Low -- °F
--% Chance of Precip.
Yesterday
High -- | Low -- °F
Precip. -- in
6:28 AM 7:55 PM
Waning Crescent, 19% visible
Pressure 29.89 in
Visibility 10.0 miles
Clouds Mostly Cloudy 2400 ft
Dew Point 57 °F
Humidity 68%
Rainfall 0.00 in
Snow Depth Not available.
UV 6 out of 12
Pollen 4.90 out of 12
Ozone Good
PM2.5 Good
Flu Activity Not available.
METAR KCCR 201953Z 27012KT 10SM BKN024 21/13 A2993 RMK AO2 SLP120 T02110133 $

More Conditions Fewer Conditions

Pressure 29.89 in
Visibility 10.0 miles
Clouds Mostly Cloudy 2400 ft
Dew Point 57 °F
Humidity 68%
Rainfall 0.00 in
Snow Depth Not available.
UV 6 out of 12
Pollen 4.90 out of 12
Ozone Good
PM2.5 Good
Flu Activity Not available.
METAR KCCR 201953Z 27012KT 10SM BKN024 21/13 A2993 RMK AO2 SLP120 T02110133 $

More Conditions Fewer Conditions

10-Day Weather Forecast

Almanac

Astronomy

Aug. 20, 2014 Rise Set
Actual Time 6:28 AM PDT 7:55 PM PDT
Civil Twilight 6:01 AM PDT 8:23 PM PDT
Nautical Twilight 5:28 AM PDT 8:56 PM PDT
Astronomical Twilight 4:52 AM PDT 9:31 PM PDT
Moon 2:15 AM PDT 4:43 PM PDT
Length of Visible Light 14h 22m
Length of Day
13h 26m
Tomorrow will be 2m 14s shorter.
Waning Crescent, 19% of the Moon is Illuminated
Today
Waning Crescent
Aug 25
New
Sep 2
First Quarter
Sep 8
Full
Sep 15
Last Quarter

Today's Extremes

State Highs State Lows

Community

WunderPhotos

Upload Photos

1,745,750 photos uploaded!

WunderBlogs® & News

By Dr. Jeff Masters
Director of Meteorology, Weather Underground
By Kari Strenfel
Meteorologist, Weather Underground
By Christopher C. Burt
Weather Historian, Weather Underground
August 20, 2014
August 20, 2014
August 20, 2014

Nearby

Air Quality

  Air Quality AQ Index Pollutant
Yesterday Good
OZONE
Yesterday Good
PM2.5
Current Good
PM2.5
Current Good
OZONE
Wednesday Good
OZONE
Thursday Good
OZONE
Friday Good
OZONE
Saturday Good
OZONE
Sunday Good
OZONE
Monday Good
OZONE

Snow Depth

Station Depth Elevation
Fallen Leaf 0 in 6300 ft
Leavitt Meadows 0 in 7200 ft
Summit Meadow 0 in 9122 ft
Adin Mountain 0 in 6200 ft

Earthquake Activity

City Distance Mag. Time & Date
King City, California 141 miles 2.7 10:26 PM PDT
2014-08-15
King City, California 141 miles 2.9 8:01 PM PDT
2014-08-14
The Geysers, California 59 miles 2.6 8:55 PM PDT
2014-08-13
Upper Lake, California 98 miles 2.9 3:32 PM PDT
2014-08-13
Minimum magnitude displayed is 2.5.

Coastal Water Temperatures

Place Temperature
San Francisco, CA 64.0 °F
Richmond, CA 66.0 °F
Port Chicago, CA 69.1 °F

Nearby Weather Stations